Time;durP1;ratioP1;P1;durP2;ratioP2;P2;SDS_P1;SDS_P2;PMS_P1;PMS_P2;Temp;Humidity;BMP_temperature;BMP_pressure;BME280_temperature;BME280_humidity;BME280_pressure;Samples;Min_cycle;Max_cycle;Signal;HPM_P1;HPM_P2
2022/08/12 00:44:20;;;;;;;2.60;1.50;;;;;;;;;;4881233;29;20048;-80
2022/08/12 00:46:54;;;;;;;2.50;1.20;;;;;;;;;;4879723;29;20033;-81
2022/08/12 00:49:25;;;;;;;2.80;1.45;;;;;;;;;;4881453;29;20037;-81
2022/08/12 00:52:10;;;;;;;2.17;1.30;;;;;;;;;;4880027;29;20033;-81
2022/08/12 00:54:42;;;;;;;2.40;1.23;;;;;;;;;;4879737;29;20111;-81
2022/08/12 00:57:12;;;;;;;7.93;1.40;;;;;;;;;;4879420;29;20037;-81
2022/08/12 00:59:47;;;;;;;2.38;1.30;;;;;;;;;;4878606;29;20394;-79
2022/08/12 01:02:21;;;;;;;2.33;1.30;;;;;;;;;;4879190;29;20044;-78
2022/08/12 01:13:03;;;;;;;5.18;1.35;;;;;;;;;;4880522;29;20059;-81
2022/08/12 01:15:31;;;;;;;3.08;1.52;;;;;;;;;;4880000;29;20080;-79
2022/08/12 01:17:58;;;;;;;2.13;1.08;;;;;;;;;;4879317;29;20025;-82
2022/08/12 01:20:35;;;;;;;4.32;1.42;;;;;;;;;;4880753;29;20032;-76
2022/08/12 01:23:10;;;;;;;2.05;1.20;;;;;;;;;;4880527;29;20025;-81
2022/08/12 01:25:38;;;;;;;2.80;1.25;;;;;;;;;;4879983;29;20424;-76
2022/08/12 01:28:07;;;;;;;2.28;1.10;;;;;;;;;;4879337;29;20096;-78
2022/08/12 01:30:34;;;;;;;3.50;1.42;;;;;;;;;;4879347;29;20035;-79
2022/08/12 01:33:04;;;;;;;3.45;1.30;;;;;;;;;;4878835;29;20394;-80
2022/08/12 01:35:32;;;;;;;4.03;1.10;;;;;;;;;;4879049;29;20438;-80
2022/08/12 01:38:04;;;;;;;3.28;1.23;;;;;;;;;;4879289;29;20029;-81
2022/08/12 01:40:32;;;;;;;2.88;1.30;;;;;;;;;;4879551;29;20029;-81
2022/08/12 01:43:02;;;;;;;3.17;1.40;;;;;;;;;;4878942;29;20037;-77
2022/08/12 01:45:29;;;;;;;2.85;1.20;;;;;;;;;;4881404;29;20029;-82
2022/08/12 01:48:04;;;;;;;2.95;1.33;;;;;;;;;;4879369;29;20060;-81
2022/08/12 01:50:36;;;;;;;4.97;1.30;;;;;;;;;;4879383;29;20033;-76
2022/08/12 01:53:06;;;;;;;2.88;1.42;;;;;;;;;;4879865;29;20097;-78
2022/08/12 01:55:34;;;;;;;2.80;1.40;;;;;;;;;;4878503;29;20032;-77
2022/08/12 01:58:00;;;;;;;3.00;1.25;;;;;;;;;;4892812;29;20040;-80
2022/08/12 02:00:34;;;;;;;3.10;1.23;;;;;;;;;;4879995;29;20060;-80
2022/08/12 02:03:08;;;;;;;2.88;1.45;;;;;;;;;;4879519;29;20517;-80
2022/08/12 02:11:28;;;;;;;5.22;1.58;;;;;;;;;;4856329;29;20354;-76
2022/08/12 02:14:01;;;;;;;2.78;1.40;;;;;;;;;;4866198;29;20049;-78
2022/08/12 02:16:44;;;;;;;4.05;1.38;;;;;;;;;;4864230;29;20030;-81
2022/08/12 02:19:24;;;;;;;3.53;1.67;;;;;;;;;;4863782;29;20044;-81
2022/08/12 02:22:09;;;;;;;3.05;1.48;;;;;;;;;;4863869;29;20077;-78
2022/08/12 02:24:37;;;;;;;3.97;1.55;;;;;;;;;;4878483;29;20022;-80
2022/08/12 02:27:07;;;;;;;2.83;1.55;;;;;;;;;;4866223;29;20076;-80
2022/08/12 02:29:34;;;;;;;3.15;1.50;;;;;;;;;;4864323;29;20061;-80
2022/08/12 02:32:00;;;;;;;2.10;1.10;;;;;;;;;;4863494;29;20033;-80
2022/08/12 02:34:28;;;;;;;3.83;1.40;;;;;;;;;;4863784;29;20057;-81
2022/08/12 02:36:56;;;;;;;5.57;1.45;;;;;;;;;;4863551;29;20041;-80
2022/08/12 02:39:26;;;;;;;3.20;1.33;;;;;;;;;;4863978;29;20033;-80
2022/08/12 02:41:54;;;;;;;2.88;1.42;;;;;;;;;;4864296;29;20033;-78
2022/08/12 02:44:22;;;;;;;2.80;1.30;;;;;;;;;;4863903;29;20495;-78
2022/08/12 02:46:51;;;;;;;3.67;1.50;;;;;;;;;;4863290;29;20542;-80
2022/08/12 02:49:30;;;;;;;5.30;1.23;;;;;;;;;;4863901;29;20064;-80
2022/08/12 02:51:58;;;;;;;3.22;1.20;;;;;;;;;;4863945;29;20093;-81
2022/08/12 02:54:25;;;;;;;3.58;1.35;;;;;;;;;;4864246;29;20061;-79
2022/08/12 02:56:51;;;;;;;4.13;1.00;;;;;;;;;;4865472;29;20113;-80
2022/08/12 02:59:19;;;;;;;2.75;1.10;;;;;;;;;;4863626;29;20097;-82
2022/08/12 03:01:46;;;;;;;2.25;1.27;;;;;;;;;;4862913;29;20029;-79
2022/08/12 03:04:18;;;;;;;4.28;1.30;;;;;;;;;;4863154;29;20129;-82
2022/08/12 03:06:47;;;;;;;2.65;1.35;;;;;;;;;;4863217;29;20030;-82
2022/08/12 03:09:14;;;;;;;5.95;1.40;;;;;;;;;;4863100;29;20056;-81
2022/08/12 03:11:48;;;;;;;4.47;1.30;;;;;;;;;;4864513;29;20054;-82
2022/08/12 03:14:16;;;;;;;3.47;1.30;;;;;;;;;;4863071;29;20041;-78
2022/08/12 03:16:44;;;;;;;2.47;1.20;;;;;;;;;;4864117;29;20093;-81
2022/08/12 03:19:10;;;;;;;3.70;1.27;;;;;;;;;;4863895;29;20034;-81
2022/08/12 03:21:36;;;;;;;4.80;1.33;;;;;;;;;;4863289;29;20041;-80
2022/08/12 03:24:04;;;;;;;3.17;1.10;;;;;;;;;;4862783;29;20042;-81
2022/08/12 03:26:30;;;;;;;2.72;1.27;;;;;;;;;;4862911;29;20391;-81
2022/08/12 03:28:57;;;;;;;2.88;1.10;;;;;;;;;;4862783;29;20177;-81
2022/08/12 03:31:23;;;;;;;2.67;1.27;;;;;;;;;;4862782;29;20092;-81
2022/08/12 03:33:50;;;;;;;5.50;1.50;;;;;;;;;;4864352;29;20113;-80
2022/08/12 03:36:19;;;;;;;2.88;1.50;;;;;;;;;;4862434;29;20046;-81
2022/08/12 03:38:57;;;;;;;4.22;1.20;;;;;;;;;;4862653;29;20036;-81
2022/08/12 03:41:38;;;;;;;4.65;1.10;;;;;;;;;;4862545;29;20491;-81
2022/08/12 04:00:47;;;;;;;4.15;1.30;;;;;;;;;;4863724;29;20100;-80
2022/08/12 04:05:58;;;;;;;2.17;1.00;;;;;;;;;;4863668;29;20040;-81
2022/08/12 04:08:25;;;;;;;2.58;1.00;;;;;;;;;;4862384;29;20057;-81
2022/08/12 04:13:42;;;;;;;3.85;1.63;;;;;;;;;;4863528;29;20106;-81
2022/08/12 04:16:13;;;;;;;5.20;1.20;;;;;;;;;;4861666;29;20554;-81
2022/08/12 04:18:39;;;;;;;2.55;1.38;;;;;;;;;;4861634;29;20037;-77
2022/08/12 04:21:09;;;;;;;7.03;1.33;;;;;;;;;;4861840;29;20098;-81
2022/08/12 04:23:37;;;;;;;1.90;1.00;;;;;;;;;;4861802;29;20157;-80
2022/08/12 04:26:03;;;;;;;3.63;1.20;;;;;;;;;;4861603;29;20021;-81
2022/08/12 04:28:29;;;;;;;1.88;1.08;;;;;;;;;;4862272;29;20093;-81
2022/08/12 04:30:56;;;;;;;3.30;1.33;;;;;;;;;;4861458;29;20026;-80
2022/08/12 04:33:23;;;;;;;2.28;1.20;;;;;;;;;;4862102;29;20041;-82
2022/08/12 04:35:50;;;;;;;4.03;1.30;;;;;;;;;;4861847;29;20029;-78
2022/08/12 04:38:16;;;;;;;3.17;1.25;;;;;;;;;;4862887;29;20448;-82
2022/08/12 04:40:44;;;;;;;2.30;1.15;;;;;;;;;;4861436;29;20094;-79
2022/08/12 04:43:10;;;;;;;3.67;1.27;;;;;;;;;;4863615;29;20048;-82
2022/08/12 04:45:37;;;;;;;2.53;1.20;;;;;;;;;;4861643;29;20395;-82
2022/08/12 04:48:04;;;;;;;2.70;1.20;;;;;;;;;;4861037;29;20483;-78
2022/08/12 04:50:31;;;;;;;3.85;1.25;;;;;;;;;;4861097;29;20082;-82
2022/08/12 04:52:59;;;;;;;2.22;1.00;;;;;;;;;;4861347;29;20044;-81
2022/08/12 04:55:25;;;;;;;2.03;1.00;;;;;;;;;;4861164;29;20062;-82
2022/08/12 04:57:55;;;;;;;3.45;1.52;;;;;;;;;;4863609;29;20101;-80
2022/08/12 05:00:21;;;;;;;2.20;1.08;;;;;;;;;;4868654;29;20484;-81
2022/08/12 05:02:48;;;;;;;2.10;0.95;;;;;;;;;;4866710;29;20447;-82
2022/08/12 05:05:19;;;;;;;3.40;1.23;;;;;;;;;;4861072;29;20117;-82
2022/08/12 05:07:49;;;;;;;3.92;1.17;;;;;;;;;;4861509;29;20126;-82
2022/08/12 05:10:16;;;;;;;4.22;1.30;;;;;;;;;;4862005;29;20049;-78
2022/08/12 05:12:43;;;;;;;1.73;0.95;;;;;;;;;;4860594;29;20392;-82
2022/08/12 05:15:12;;;;;;;3.35;1.05;;;;;;;;;;4860728;29;20041;-80
2022/08/12 05:17:39;;;;;;;4.57;1.35;;;;;;;;;;4860905;29;20030;-78
2022/08/12 05:20:06;;;;;;;3.33;0.98;;;;;;;;;;4861019;29;20033;-77
2022/08/12 05:22:40;;;;;;;4.38;1.20;;;;;;;;;;4879219;29;20037;-77
2022/08/12 05:25:06;;;;;;;5.28;1.10;;;;;;;;;;4876555;29;20025;-77
2022/08/12 05:27:36;;;;;;;1.65;1.05;;;;;;;;;;4882497;29;20029;-79
2022/08/12 05:30:02;;;;;;;1.88;1.10;;;;;;;;;;4892880;29;20025;-79
2022/08/12 05:32:28;;;;;;;3.53;0.98;;;;;;;;;;4897491;29;20406;-80
2022/08/12 05:34:54;;;;;;;1.70;0.90;;;;;;;;;;4897242;29;20056;-80
2022/08/12 05:37:21;;;;;;;3.25;0.98;;;;;;;;;;4897843;29;20116;-80
2022/08/12 05:39:47;;;;;;;1.90;1.00;;;;;;;;;;4899076;29;20363;-78
2022/08/12 05:42:13;;;;;;;4.32;0.60;;;;;;;;;;4883733;29;20025;-77
2022/08/12 05:44:39;;;;;;;1.67;0.70;;;;;;;;;;4878457;29;20091;-77
2022/08/12 05:47:06;;;;;;;2.03;0.68;;;;;;;;;;4878782;29;20423;-76
2022/08/12 05:49:33;;;;;;;1.00;0.60;;;;;;;;;;4879730;29;20033;-75
2022/08/12 05:52:00;;;;;;;1.35;0.50;;;;;;;;;;4879081;29;20029;-80
2022/08/12 05:54:26;;;;;;;1.60;0.68;;;;;;;;;;4867804;29;20045;-77
2022/08/12 05:56:53;;;;;;;1.38;0.57;;;;;;;;;;4875266;29;20026;-77
2022/08/12 05:59:20;;;;;;;2.78;0.80;;;;;;;;;;4878115;29;20037;-77
2022/08/12 06:01:46;;;;;;;1.55;0.60;;;;;;;;;;4878923;29;20059;-77
2022/08/12 06:04:13;;;;;;;1.20;0.60;;;;;;;;;;4878561;29;20025;-81
2022/08/12 06:06:41;;;;;;;1.35;0.40;;;;;;;;;;4878227;29;20048;-78
2022/08/12 06:09:10;;;;;;;0.95;0.40;;;;;;;;;;4877817;29;20131;-78
2022/08/12 06:11:36;;;;;;;1.45;0.55;;;;;;;;;;4878420;29;20176;-78
2022/08/12 06:14:02;;;;;;;1.77;0.57;;;;;;;;;;4878347;29;20045;-77
2022/08/12 06:16:34;;;;;;;1.90;0.70;;;;;;;;;;4878055;29;20029;-78
2022/08/12 06:19:00;;;;;;;1.63;0.52;;;;;;;;;;4891765;29;20029;-81
2022/08/12 06:21:26;;;;;;;9.60;0.73;;;;;;;;;;4890701;29;20052;-81
2022/08/12 06:23:53;;;;;;;5.57;0.80;;;;;;;;;;4879457;29;20033;-79
2022/08/12 06:26:20;;;;;;;1.95;0.55;;;;;;;;;;4879247;29;20060;-81
2022/08/12 06:28:49;;;;;;;1.65;0.40;;;;;;;;;;4879660;29;20033;-81
2022/08/12 06:31:16;;;;;;;1.75;0.50;;;;;;;;;;4879400;29;20531;-79
2022/08/12 06:33:43;;;;;;;1.30;0.60;;;;;;;;;;4878085;29;20037;-79
2022/08/12 06:36:13;;;;;;;1.67;0.55;;;;;;;;;;4878147;29;20486;-79
2022/08/12 06:38:40;;;;;;;1.17;0.50;;;;;;;;;;4877941;29;20128;-82
2022/08/12 06:43:52;;;;;;;2.25;0.75;;;;;;;;;;4875497;29;20550;-81
2022/08/12 06:46:20;;;;;;;1.30;0.60;;;;;;;;;;4878393;29;20118;-81
2022/08/12 06:48:46;;;;;;;4.97;0.60;;;;;;;;;;4879522;29;20502;-81
2022/08/12 06:51:13;;;;;;;1.20;0.50;;;;;;;;;;4878502;29;20040;-79
2022/08/12 06:53:42;;;;;;;1.50;0.45;;;;;;;;;;4879556;29;20068;-82
2022/08/12 06:56:08;;;;;;;7.00;0.70;;;;;;;;;;4880333;29;20077;-82
2022/08/12 06:58:38;;;;;;;1.25;0.60;;;;;;;;;;4880880;29;20033;-83
2022/08/12 07:01:05;;;;;;;0.88;0.47;;;;;;;;;;4883377;29;20076;-81
2022/08/12 07:03:31;;;;;;;2.05;0.73;;;;;;;;;;4882712;29;20037;-88
2022/08/12 07:06:00;;;;;;;1.60;0.40;;;;;;;;;;4881952;29;20036;-81
2022/08/12 07:08:27;;;;;;;1.58;0.60;;;;;;;;;;4884729;29;20035;-88
2022/08/12 07:13:44;;;;;;;1.38;0.65;;;;;;;;;;4885555;29;20077;-90
2022/08/12 07:16:17;;;;;;;1.23;0.50;;;;;;;;;;4891297;29;20066;-89
2022/08/12 07:18:54;;;;;;;1.85;0.70;;;;;;;;;;4882899;29;20124;-89
2022/08/12 07:21:20;;;;;;;1.00;0.50;;;;;;;;;;4880576;29;20045;-82
2022/08/12 07:23:46;;;;;;;1.58;0.50;;;;;;;;;;4879051;29;20076;-81
2022/08/12 07:26:15;;;;;;;1.30;0.50;;;;;;;;;;4878362;29;20112;-81
2022/08/12 07:28:42;;;;;;;1.52;0.70;;;;;;;;;;4903843;29;20033;-83
2022/08/12 07:31:13;;;;;;;1.10;0.50;;;;;;;;;;4904271;29;20029;-88
2022/08/12 07:33:51;;;;;;;1.55;0.60;;;;;;;;;;4893570;29;20046;-89
2022/08/12 07:36:24;;;;;;;1.63;0.40;;;;;;;;;;4898344;29;20058;-89
2022/08/12 07:38:53;;;;;;;1.30;0.70;;;;;;;;;;4890482;29;20049;-87
2022/08/12 07:41:30;;;;;;;3.40;0.40;;;;;;;;;;4903743;29;20021;-92
2022/08/12 07:44:06;;;;;;;1.30;0.45;;;;;;;;;;4906023;29;20013;-89
2022/08/12 07:46:37;;;;;;;0.98;0.40;;;;;;;;;;4905760;29;20034;-89
2022/08/12 07:49:08;;;;;;;4.40;0.50;;;;;;;;;;4906461;29;20132;-87
2022/08/12 07:51:35;;;;;;;1.00;0.43;;;;;;;;;;4902321;29;20029;-88
2022/08/12 07:54:08;;;;;;;0.70;0.30;;;;;;;;;;4901472;29;20064;-88
2022/08/12 07:56:35;;;;;;;4.00;0.60;;;;;;;;;;4901261;29;20101;-88
2022/08/12 07:59:02;;;;;;;1.48;0.47;;;;;;;;;;4888827;29;20037;-89
2022/08/12 08:01:29;;;;;;;1.13;0.60;;;;;;;;;;4901695;29;20127;-87
2022/08/12 08:07:01;;;;;;;3.25;0.50;;;;;;;;;;4865923;29;20162;-88
2022/08/12 08:09:27;;;;;;;2.40;0.60;;;;;;;;;;4852706;29;20025;-88
2022/08/12 08:14:46;;;;;;;1.00;0.47;;;;;;;;;;4891197;29;20036;-88
2022/08/12 08:17:16;;;;;;;1.52;0.60;;;;;;;;;;4891045;29;20029;-87
2022/08/12 08:19:51;;;;;;;1.83;0.50;;;;;;;;;;4906867;29;20029;-88
2022/08/12 08:22:18;;;;;;;1.25;0.40;;;;;;;;;;4877968;29;20550;-87
2022/08/12 08:24:44;;;;;;;1.92;0.60;;;;;;;;;;4899474;29;20125;-88
2022/08/12 08:27:21;;;;;;;1.40;0.47;;;;;;;;;;4868664;29;20400;-88
2022/08/12 08:29:58;;;;;;;1.33;0.40;;;;;;;;;;4978331;23;20080;-88
2022/08/12 08:32:41;;;;;;;1.55;0.40;;;;;;;;;;4926712;29;20064;-86
2022/08/12 08:35:10;;;;;;;0.82;0.30;;;;;;;;;;4923936;29;20032;-86
2022/08/12 08:37:45;;;;;;;1.35;0.40;;;;;;;;;;4925018;29;20099;-87
2022/08/12 08:42:59;;;;;;;1.88;0.50;;;;;;;;;;4937053;29;20101;-87
2022/08/12 08:45:27;;;;;;;1.23;0.52;;;;;;;;;;4922309;29;20048;-88
2022/08/12 08:47:54;;;;;;;1.00;0.40;;;;;;;;;;4937500;29;20011;-88
2022/08/12 08:50:20;;;;;;;1.42;0.47;;;;;;;;;;4921772;29;20048;-87
2022/08/12 08:52:47;;;;;;;1.20;0.40;;;;;;;;;;4917585;29;20092;-87
2022/08/12 08:55:15;;;;;;;2.33;0.40;;;;;;;;;;4906204;29;20039;-88
2022/08/12 08:57:50;;;;;;;0.95;0.47;;;;;;;;;;4908595;29;20052;-88
2022/08/12 09:00:20;;;;;;;3.30;0.50;;;;;;;;;;4889644;29;20040;-87
2022/08/12 09:02:47;;;;;;;1.20;0.40;;;;;;;;;;4905276;29;20048;-88
2022/08/12 09:05:13;;;;;;;0.95;0.50;;;;;;;;;;4916845;29;20473;-88
2022/08/12 09:07:42;;;;;;;0.75;0.32;;;;;;;;;;4911261;29;20044;-89
2022/08/12 09:10:12;;;;;;;1.00;0.50;;;;;;;;;;4949874;29;20035;-89
2022/08/12 09:15:24;;;;;;;1.08;0.47;;;;;;;;;;4942941;29;20042;-90
2022/08/12 09:17:55;;;;;;;2.45;0.50;;;;;;;;;;4904557;29;20111;-89
2022/08/12 09:20:23;;;;;;;0.70;0.20;;;;;;;;;;4924918;29;20033;-90
2022/08/12 09:22:53;;;;;;;1.02;0.30;;;;;;;;;;4907483;29;20036;-88
2022/08/12 09:25:32;;;;;;;0.85;0.38;;;;;;;;;;4905099;29;20028;-88
2022/08/12 09:27:59;;;;;;;0.90;0.40;;;;;;;;;;4912844;29;20051;-89
2022/08/12 09:30:29;;;;;;;0.73;0.28;;;;;;;;;;4925330;29;20020;-91
2022/08/12 09:32:56;;;;;;;4.47;0.45;;;;;;;;;;4910623;29;20533;-89
2022/08/12 09:35:24;;;;;;;0.90;0.30;;;;;;;;;;4911439;29;20084;-90
2022/08/12 09:37:51;;;;;;;0.75;0.30;;;;;;;;;;4909249;29;20033;-88
2022/08/12 09:40:18;;;;;;;1.40;0.40;;;;;;;;;;4909488;29;20496;-90
2022/08/12 09:45:32;;;;;;;1.02;0.32;;;;;;;;;;4911776;29;20107;-89
2022/08/12 09:48:32;;;;;;;2.10;0.50;;;;;;;;;;4892219;29;20041;-92
2022/08/12 09:51:00;;;;;;;1.15;0.40;;;;;;;;;;4923901;29;20043;-89
2022/08/12 09:53:27;;;;;;;1.17;0.30;;;;;;;;;;4913230;29;20064;-90
2022/08/12 09:55:55;;;;;;;0.80;0.38;;;;;;;;;;4906550;29;20148;-90
2022/08/12 09:58:28;;;;;;;0.88;0.40;;;;;;;;;;4910353;29;20040;-91
2022/08/12 10:00:55;;;;;;;1.67;0.30;;;;;;;;;;4907882;29;20055;-91
2022/08/12 10:03:25;;;;;;;0.60;0.30;;;;;;;;;;4912167;29;20036;-90
2022/08/12 10:05:52;;;;;;;1.13;0.25;;;;;;;;;;4909259;29;20433;-90
2022/08/12 10:08:18;;;;;;;3.83;0.30;;;;;;;;;;4907881;29;20059;-88
2022/08/12 10:13:41;;;;;;;1.05;0.35;;;;;;;;;;4926085;29;20043;-90
2022/08/12 10:16:19;;;;;;;0.60;0.40;;;;;;;;;;4911547;29;20107;-91
2022/08/12 10:18:49;;;;;;;2.88;0.50;;;;;;;;;;4909938;29;20043;-90
2022/08/12 10:21:18;;;;;;;0.73;0.32;;;;;;;;;;4927121;29;20027;-89
2022/08/12 10:23:48;;;;;;;0.60;0.30;;;;;;;;;;4926088;29;20032;-88
2022/08/12 10:32:07;;;;;;;0.77;0.20;;;;;;;;;;4944432;29;20079;-89
2022/08/12 10:34:41;;;;;;;1.27;0.47;;;;;;;;;;4951134;29;20031;-88
2022/08/12 10:37:11;;;;;;;0.77;0.30;;;;;;;;;;4951801;29;20514;-89
2022/08/12 10:39:39;;;;;;;0.55;0.25;;;;;;;;;;4928719;29;20031;-90
2022/08/12 10:44:51;;;;;;;1.00;0.40;;;;;;;;;;4944995;29;20063;-88
2022/08/12 10:47:19;;;;;;;0.60;0.20;;;;;;;;;;4942562;29;20149;-89
2022/08/12 10:49:46;;;;;;;1.48;0.47;;;;;;;;;;4942665;29;20127;-90
2022/08/12 10:52:13;;;;;;;1.83;0.50;;;;;;;;;;4919208;29;20400;-90
2022/08/12 10:54:41;;;;;;;0.52;0.20;;;;;;;;;;4926251;29;20032;-90
2022/08/12 10:57:07;;;;;;;1.30;0.20;;;;;;;;;;4891849;29;20032;-89
2022/08/12 10:59:35;;;;;;;1.27;0.50;;;;;;;;;;4904848;29;20032;-89
2022/08/12 11:02:01;;;;;;;2.50;0.50;;;;;;;;;;4919013;29;20144;-88
2022/08/12 11:04:32;;;;;;;0.63;0.22;;;;;;;;;;4924928;29;20036;-88
2022/08/12 11:07:02;;;;;;;3.60;0.22;;;;;;;;;;4924442;29;20024;-86
2022/08/12 11:09:30;;;;;;;0.95;0.30;;;;;;;;;;4900610;29;20548;-87
2022/08/12 11:11:58;;;;;;;0.57;0.20;;;;;;;;;;4938946;29;20489;-86
2022/08/12 11:14:29;;;;;;;0.88;0.40;;;;;;;;;;4941589;29;20027;-86
2022/08/12 11:16:56;;;;;;;0.80;0.30;;;;;;;;;;4941264;29;20031;-88
2022/08/12 11:19:30;;;;;;;0.85;0.38;;;;;;;;;;4939714;29;20035;-88
2022/08/12 11:21:56;;;;;;;1.33;0.30;;;;;;;;;;4908305;29;20020;-86
2022/08/12 11:24:29;;;;;;;1.23;0.43;;;;;;;;;;4921740;29;20047;-87
2022/08/12 11:26:55;;;;;;;0.75;0.40;;;;;;;;;;4907637;29;20069;-87
2022/08/12 11:29:22;;;;;;;1.35;0.38;;;;;;;;;;4909661;29;20035;-89
2022/08/12 11:31:49;;;;;;;1.02;0.40;;;;;;;;;;4905644;29;20052;-88
2022/08/12 11:34:19;;;;;;;2.95;0.50;;;;;;;;;;4905536;29;20134;-88
2022/08/12 11:36:50;;;;;;;0.68;0.32;;;;;;;;;;4904069;29;20047;-82
2022/08/12 11:39:16;;;;;;;1.02;0.38;;;;;;;;;;4901081;29;20032;-82
2022/08/12 11:41:42;;;;;;;0.77;0.40;;;;;;;;;;4900592;29;20035;-81
2022/08/12 11:44:08;;;;;;;2.67;0.43;;;;;;;;;;4901003;29;20152;-83
2022/08/12 11:46:35;;;;;;;1.20;0.35;;;;;;;;;;4900645;29;20032;-82
2022/08/12 11:49:01;;;;;;;0.98;0.40;;;;;;;;;;4899684;29;20443;-83
2022/08/12 11:51:28;;;;;;;1.65;0.70;;;;;;;;;;4904687;29;20024;-82
2022/08/12 11:53:54;;;;;;;0.95;0.40;;;;;;;;;;4900161;29;20485;-84
2022/08/12 11:56:20;;;;;;;2.20;0.50;;;;;;;;;;4900471;29;20062;-83
2022/08/12 11:58:47;;;;;;;1.33;0.30;;;;;;;;;;4901263;29;20029;-81
2022/08/12 12:01:13;;;;;;;0.70;0.38;;;;;;;;;;4901493;29;20386;-82
2022/08/12 12:03:40;;;;;;;1.40;0.40;;;;;;;;;;4902729;29;20402;-84
2022/08/12 12:06:06;;;;;;;2.50;0.63;;;;;;;;;;4904664;29;20116;-84
2022/08/12 12:08:32;;;;;;;1.92;0.52;;;;;;;;;;4901325;29;20017;-84
2022/08/12 12:10:58;;;;;;;1.45;0.60;;;;;;;;;;4885471;29;20055;-85
2022/08/12 12:13:24;;;;;;;2.78;0.60;;;;;;;;;;4900124;29;20120;-84
2022/08/12 12:15:51;;;;;;;1.08;0.50;;;;;;;;;;4882557;29;20115;-85
2022/08/12 12:18:21;;;;;;;1.17;0.60;;;;;;;;;;4911411;29;20120;-81
2022/08/12 12:20:47;;;;;;;1.33;0.60;;;;;;;;;;4901763;29;20052;-85
2022/08/12 12:23:13;;;;;;;2.20;0.60;;;;;;;;;;4901292;29;20092;-82
2022/08/12 12:25:39;;;;;;;2.78;0.40;;;;;;;;;;4902608;29;20418;-82
2022/08/12 12:28:05;;;;;;;1.17;0.40;;;;;;;;;;4901148;29;20032;-80
2022/08/12 12:30:31;;;;;;;0.60;0.30;;;;;;;;;;4900150;29;20028;-80
2022/08/12 12:32:58;;;;;;;1.10;0.40;;;;;;;;;;4873942;29;20048;-80
2022/08/12 12:35:24;;;;;;;0.80;0.30;;;;;;;;;;4875026;29;20032;-81
2022/08/12 12:38:00;;;;;;;1.38;0.40;;;;;;;;;;4896272;29;20397;-85
2022/08/12 12:40:27;;;;;;;2.55;0.60;;;;;;;;;;4892561;29;20025;-81
2022/08/12 12:42:53;;;;;;;1.05;0.40;;;;;;;;;;4898890;29;20041;-84
2022/08/12 12:45:20;;;;;;;1.45;0.35;;;;;;;;;;4883472;29;20088;-82
2022/08/12 12:47:52;;;;;;;0.68;0.32;;;;;;;;;;4882921;29;20115;-83
2022/08/12 12:50:18;;;;;;;1.58;0.40;;;;;;;;;;4883512;29;20143;-83
2022/08/12 12:52:44;;;;;;;3.10;0.47;;;;;;;;;;4893292;29;20043;-89
2022/08/12 12:55:11;;;;;;;1.05;0.40;;;;;;;;;;4900143;29;20505;-87
2022/08/12 12:57:39;;;;;;;6.00;0.50;;;;;;;;;;4885817;29;20083;-88
2022/08/12 13:00:16;;;;;;;3.95;0.40;;;;;;;;;;4884435;29;20033;-90
2022/08/12 13:02:55;;;;;;;0.90;0.43;;;;;;;;;;4884574;29;20036;-88
2022/08/12 13:05:30;;;;;;;1.02;0.40;;;;;;;;;;4896020;29;20032;-88
2022/08/12 13:07:57;;;;;;;3.58;0.47;;;;;;;;;;4901307;29;20029;-90
2022/08/12 13:10:24;;;;;;;1.98;0.50;;;;;;;;;;4885795;29;20501;-88
2022/08/12 13:12:51;;;;;;;1.02;0.40;;;;;;;;;;4891354;29;20033;-87
2022/08/12 13:15:20;;;;;;;0.52;0.30;;;;;;;;;;4901983;29;20032;-91
2022/08/12 13:17:48;;;;;;;1.90;0.40;;;;;;;;;;4887182;29;20029;-87
2022/08/12 13:20:15;;;;;;;0.68;0.30;;;;;;;;;;4886238;29;20039;-86
2022/08/12 13:22:41;;;;;;;0.63;0.30;;;;;;;;;;4900874;29;20036;-88
2022/08/12 13:25:07;;;;;;;1.17;0.35;;;;;;;;;;4901723;29;20068;-86
2022/08/12 13:27:34;;;;;;;1.98;0.40;;;;;;;;;;4885237;29;20092;-86
2022/08/12 13:30:02;;;;;;;0.93;0.40;;;;;;;;;;4900051;29;20071;-89
2022/08/12 13:32:28;;;;;;;0.70;0.40;;;;;;;;;;4909456;29;20047;-88
2022/08/12 13:34:59;;;;;;;1.08;0.60;;;;;;;;;;4917329;29;20084;-88
2022/08/12 13:37:25;;;;;;;0.70;0.40;;;;;;;;;;4921831;29;20032;-88
2022/08/12 13:39:52;;;;;;;1.05;0.40;;;;;;;;;;4903487;29;20036;-87
2022/08/12 13:42:18;;;;;;;1.17;0.50;;;;;;;;;;4904895;29;20114;-86
2022/08/12 13:44:52;;;;;;;0.70;0.40;;;;;;;;;;4890183;29;20486;-88
2022/08/12 13:47:27;;;;;;;1.75;0.43;;;;;;;;;;4905401;29;20122;-87
2022/08/12 13:49:56;;;;;;;1.25;0.40;;;;;;;;;;4903277;29;20027;-90
2022/08/12 13:52:27;;;;;;;3.40;0.60;;;;;;;;;;4902639;29;20083;-87
2022/08/12 13:54:54;;;;;;;1.02;0.45;;;;;;;;;;4919674;29;20127;-90
2022/08/12 13:57:39;;;;;;;0.80;0.30;;;;;;;;;;4902585;29;20039;-89
2022/08/12 14:00:14;;;;;;;5.30;0.50;;;;;;;;;;4920772;29;20427;-89
2022/08/12 14:02:40;;;;;;;1.23;0.35;;;;;;;;;;4902867;29;20127;-87
2022/08/12 14:05:10;;;;;;;3.58;0.52;;;;;;;;;;4906118;29;20039;-87
2022/08/12 14:07:52;;;;;;;3.55;0.68;;;;;;;;;;4925023;29;20064;-87
2022/08/12 14:13:07;;;;;;;1.17;0.50;;;;;;;;;;4921123;29;20083;-88
2022/08/12 14:15:38;;;;;;;1.75;0.40;;;;;;;;;;4903503;29;20032;-87
2022/08/12 14:18:08;;;;;;;1.30;0.30;;;;;;;;;;4899882;29;20502;-87
2022/08/12 14:20:34;;;;;;;1.95;0.60;;;;;;;;;;4901957;29;20103;-88
2022/08/12 14:23:03;;;;;;;11.40;0.85;;;;;;;;;;4902844;29;20051;-88
2022/08/12 14:25:29;;;;;;;1.42;0.50;;;;;;;;;;4886151;29;20109;-89
2022/08/12 14:28:10;;;;;;;1.83;0.45;;;;;;;;;;4915199;29;20040;-87
2022/08/12 14:31:01;;;;;;;1.38;0.55;;;;;;;;;;4915926;29;20036;-90
2022/08/12 14:33:28;;;;;;;0.60;0.30;;;;;;;;;;4912915;29;20084;-86
2022/08/12 14:35:55;;;;;;;1.52;0.40;;;;;;;;;;4913910;29;20653;-84
2022/08/12 14:38:28;;;;;;;1.30;0.50;;;;;;;;;;4900377;29;20469;-82
2022/08/12 14:40:56;;;;;;;5.07;0.38;;;;;;;;;;4914060;29;20032;-84
2022/08/12 14:43:22;;;;;;;3.10;0.80;;;;;;;;;;4917332;29;20063;-82
2022/08/12 14:45:53;;;;;;;2.78;0.50;;;;;;;;;;4918735;29;20051;-84
2022/08/12 14:48:19;;;;;;;5.22;0.70;;;;;;;;;;4903551;29;20033;-85
2022/08/12 14:50:46;;;;;;;1.13;0.47;;;;;;;;;;4901058;29;20029;-84
2022/08/12 14:53:13;;;;;;;3.28;0.50;;;;;;;;;;4899777;29;20045;-87
2022/08/12 14:55:40;;;;;;;2.05;0.60;;;;;;;;;;4917959;29;20029;-84
2022/08/12 14:58:07;;;;;;;4.53;0.40;;;;;;;;;;4898463;29;20164;-85
2022/08/12 15:03:22;;;;;;;3.15;0.50;;;;;;;;;;4917761;29;20405;-84
2022/08/12 15:05:48;;;;;;;1.52;0.50;;;;;;;;;;4918463;29;20397;-83
2022/08/12 15:08:14;;;;;;;1.25;0.47;;;;;;;;;;4917165;29;20020;-82
2022/08/12 15:10:42;;;;;;;2.17;0.60;;;;;;;;;;4917798;29;20092;-82
2022/08/12 15:13:08;;;;;;;1.42;0.40;;;;;;;;;;4898497;29;20029;-81
2022/08/12 15:15:40;;;;;;;1.73;0.40;;;;;;;;;;4916863;29;20032;-84
2022/08/12 15:18:07;;;;;;;1.30;0.50;;;;;;;;;;4922046;29;20024;-81
2022/08/12 15:20:33;;;;;;;0.88;0.50;;;;;;;;;;4903402;29;20039;-89
2022/08/12 15:22:59;;;;;;;1.10;0.32;;;;;;;;;;4918575;29;20040;-87
2022/08/12 15:25:29;;;;;;;1.38;0.40;;;;;;;;;;4901519;29;20035;-90
2022/08/12 15:27:58;;;;;;;0.95;0.43;;;;;;;;;;4917520;29;20036;-90
2022/08/12 15:30:24;;;;;;;2.65;0.50;;;;;;;;;;4920432;29;20489;-89
2022/08/12 15:32:52;;;;;;;6.82;0.50;;;;;;;;;;4923061;29;20048;-89
2022/08/12 15:35:22;;;;;;;1.30;0.60;;;;;;;;;;4904591;29;20036;-89
2022/08/12 15:40:52;;;;;;;2.70;0.75;;;;;;;;;;4914665;29;20035;-89
2022/08/12 15:43:46;;;;;;;1.33;0.40;;;;;;;;;;4906071;29;20071;-88
2022/08/12 15:46:15;;;;;;;1.15;0.50;;;;;;;;;;4910829;29;20036;-91
2022/08/12 15:48:43;;;;;;;1.75;0.50;;;;;;;;;;4904517;29;20036;-89
2022/08/12 15:51:12;;;;;;;3.50;0.60;;;;;;;;;;4923775;29;20031;-91
2022/08/12 15:56:23;;;;;;;2.45;0.30;;;;;;;;;;4928272;29;20060;-89
2022/08/12 15:58:53;;;;;;;2.22;0.38;;;;;;;;;;4906044;29;20524;-91
2022/08/12 16:01:23;;;;;;;1.33;0.40;;;;;;;;;;4902923;29;20028;-89
2022/08/12 16:04:01;;;;;;;1.00;0.50;;;;;;;;;;4906018;29;20047;-89
2022/08/12 16:06:35;;;;;;;1.10;0.40;;;;;;;;;;4906295;29;20079;-88
2022/08/12 16:09:02;;;;;;;0.88;0.40;;;;;;;;;;4889942;29;20087;-88
2022/08/12 16:11:30;;;;;;;1.83;0.77;;;;;;;;;;4905585;29;20561;-90
2022/08/12 16:13:59;;;;;;;3.92;0.63;;;;;;;;;;4902085;29;20039;-88
2022/08/12 16:16:29;;;;;;;1.88;0.80;;;;;;;;;;4919564;29;20509;-88
2022/08/12 16:18:56;;;;;;;1.08;0.60;;;;;;;;;;4906725;29;20025;-89
2022/08/12 16:21:23;;;;;;;3.05;0.70;;;;;;;;;;4899496;29;20481;-89
2022/08/12 16:23:49;;;;;;;1.38;0.70;;;;;;;;;;4904811;29;20051;-87
2022/08/12 16:26:15;;;;;;;3.28;0.70;;;;;;;;;;4902302;29;20055;-87
2022/08/12 16:28:41;;;;;;;1.33;0.70;;;;;;;;;;4901494;29;20043;-87
2022/08/12 16:31:09;;;;;;;1.65;0.70;;;;;;;;;;4920491;29;20039;-87
2022/08/12 16:33:37;;;;;;;1.48;0.57;;;;;;;;;;4900034;29;20064;-87
2022/08/12 16:36:04;;;;;;;3.13;0.60;;;;;;;;;;4902631;29;20062;-89
2022/08/12 16:38:32;;;;;;;1.55;0.60;;;;;;;;;;4902113;29;20024;-89
2022/08/12 16:41:01;;;;;;;1.75;0.60;;;;;;;;;;4903933;29;20056;-89
2022/08/12 16:43:29;;;;;;;1.50;0.60;;;;;;;;;;4903726;29;20490;-89
2022/08/12 16:45:58;;;;;;;2.33;0.70;;;;;;;;;;4913783;29;20028;-88
2022/08/12 16:48:25;;;;;;;10.43;0.80;;;;;;;;;;4903490;29;20029;-89
2022/08/12 16:50:54;;;;;;;1.50;0.60;;;;;;;;;;4905558;29;20033;-90
2022/08/12 16:53:24;;;;;;;2.20;0.90;;;;;;;;;;4902790;29;20039;-88
2022/08/12 16:55:54;;;;;;;2.10;0.75;;;;;;;;;;4901734;29;20040;-89